Back to Top

Language: 

My Weather Underground Personal Weather Station Historical Data with Graphs...

Delerius Weather Station Historical Data
Daily Summary for June 4, 2017 Units:  English    Metric   Both
« Previous Day
Next Day »
Daily Weekly Monthly Yearly Custom
  High: Low: Average:
Temperature: 66.0 °F 49.3 °F 56.8 °F
Dew Point: 53.6 °F 42.9 °F 47.1 °F
Humidity: 87 % 45 % 71 %
Wind Speed: 17.0 mph 0.0 mph 5.6 mph
Wind Gust: 26.0 mph - -
Wind:- - WSW
Pressure: 29.94 in 29.86 in -
Precipitation: 0.02 in    
Historical Graphs
 
 
Tabular Data for June 4, 2017
Time Temperature Dew Point Pressure Wind Wind Speed Wind Gust Humidity Rainfall Rate (Hourly) solar Conditions
00:00 52.9 °F 45.5 °F 29.90 in West 3.0 mph 8.0 mph 76 % 0.00 in 0 W/m2
00:05 52.9 °F 45.5 °F 29.90 in West 3.0 mph 8.0 mph 76 % 0.00 in 0 W/m2
00:10 52.7 °F 45.7 °F 29.90 in WNW 3.0 mph 7.0 mph 77 % 0.00 in 0 W/m2
00:15 52.5 °F 45.5 °F 29.91 in WNW 3.0 mph 7.0 mph 77 % 0.00 in 0 W/m2
00:20 52.3 °F 45.3 °F 29.91 in WNW 3.0 mph 6.0 mph 77 % 0.00 in 0 W/m2
00:25 52.2 °F 45.5 °F 29.91 in WNW 2.0 mph 6.0 mph 78 % 0.00 in 0 W/m2
00:30 52.0 °F 45.3 °F 29.91 in WNW 2.0 mph 5.0 mph 78 % 0.00 in 0 W/m2
00:35 52.0 °F 45.7 °F 29.91 in WNW 2.0 mph 6.0 mph 79 % 0.00 in 0 W/m2
00:40 51.8 °F 45.5 °F 29.91 in West 2.0 mph 6.0 mph 79 % 0.00 in 0 W/m2
00:45 51.8 °F 45.5 °F 29.91 in West 1.0 mph 6.0 mph 79 % 0.00 in 0 W/m2
00:50 51.6 °F 45.3 °F 29.91 in West 1.0 mph 5.0 mph 79 % 0.00 in 0 W/m2
00:55 51.4 °F 45.1 °F 29.91 in West 1.0 mph 6.0 mph 79 % 0.00 in 0 W/m2
01:00 51.3 °F 45.3 °F 29.90 in WNW 2.0 mph 6.0 mph 80 % 0.00 in 0 W/m2
01:05 51.3 °F 45.3 °F 29.90 in WNW 1.0 mph 6.0 mph 80 % 0.00 in 0 W/m2
01:10 51.1 °F 45.1 °F 29.91 in Calm   4.0 mph 80 % 0.00 in 0 W/m2
01:15 51.1 °F 45.1 °F 29.90 in Calm   2.0 mph 80 % 0.00 in 0 W/m2
01:20 50.7 °F 45.1 °F 29.90 in Calm   2.0 mph 81 % 0.00 in 0 W/m2
01:25 50.7 °F 45.1 °F 29.90 in Calm   1.0 mph 81 % 0.00 in 0 W/m2
01:30 50.5 °F 44.9 °F 29.90 in Calm   1.0 mph 81 % 0.00 in 0 W/m2
01:35 50.4 °F 45.1 °F 29.90 in Calm     82 % 0.00 in 0 W/m2
01:40 50.2 °F 44.9 °F 29.90 in Calm     82 % 0.00 in 0 W/m2
01:45 49.8 °F 44.5 °F 29.90 in Calm   1.0 mph 82 % 0.00 in 0 W/m2
01:50 49.8 °F 44.9 °F 29.90 in Calm   1.0 mph 83 % 0.00 in 0 W/m2
01:55 49.6 °F 44.7 °F 29.90 in Calm   2.0 mph 83 % 0.00 in 0 W/m2
02:00 49.6 °F 45.0 °F 29.91 in Calm   2.0 mph 84 % 0.00 in 0 W/m2
02:05 49.8 °F 45.2 °F 29.91 in Calm   4.0 mph 84 % 0.00 in 0 W/m2
02:10 49.8 °F 45.2 °F 29.91 in Calm   4.0 mph 84 % 0.00 in 0 W/m2
02:15 49.8 °F 45.2 °F 29.91 in Calm   1.0 mph 84 % 0.00 in 0 W/m2
02:21 49.6 °F 45.0 °F 29.91 in Calm     84 % 0.00 in 0 W/m2
02:26 49.6 °F 45.0 °F 29.91 in Calm   1.0 mph 84 % 0.00 in 0 W/m2
02:31 49.6 °F 45.3 °F 29.91 in Calm   1.0 mph 85 % 0.00 in 0 W/m2
02:36 49.6 °F 45.3 °F 29.91 in Calm   1.0 mph 85 % 0.00 in 0 W/m2
02:41 49.6 °F 45.0 °F 29.91 in Calm   1.0 mph 84 % 0.00 in 0 W/m2
02:46 49.6 °F 45.0 °F 29.91 in Calm   1.0 mph 84 % 0.00 in 0 W/m2
02:51 49.6 °F 45.0 °F 29.91 in Calm   1.0 mph 84 % 0.00 in 0 W/m2
02:56 49.6 °F 45.0 °F 29.91 in Calm   4.0 mph 84 % 0.00 in 0 W/m2
03:01 49.6 °F 45.3 °F 29.91 in Calm   4.0 mph 85 % 0.00 in 0 W/m2
03:06 49.5 °F 45.1 °F 29.91 in West 1.0 mph 8.0 mph 85 % 0.00 in 0 W/m2
03:07 49.6 °F 45.6 °F 29.91 in West 1.0 mph 8.0 mph 86 % 0.00 in 0 W/m2
03:12 49.8 °F 45.8 °F 29.91 in WNW 2.0 mph 8.0 mph 86 % 0.00 in 0 W/m2
03:17 50.4 °F 46.3 °F 29.91 in West 3.0 mph 10.0 mph 86 % 0.00 in 0 W/m2
03:22 50.9 °F 46.2 °F 29.91 in WSW 6.0 mph 13.0 mph 84 % 0.00 in 0 W/m2
03:27 51.3 °F 46.6 °F 29.91 in WSW 6.0 mph 13.0 mph 84 % 0.00 in 0 W/m2
03:32 51.4 °F 46.4 °F 29.91 in West 6.0 mph 11.0 mph 83 % 0.00 in 0 W/m2
03:38 51.4 °F 46.4 °F 29.91 in West 4.0 mph 11.0 mph 83 % 0.00 in 0 W/m2
03:43 51.3 °F 46.3 °F 29.91 in West 2.0 mph 6.0 mph 83 % 0.00 in 0 W/m2
03:48 51.1 °F 46.1 °F 29.91 in WNW 2.0 mph 6.0 mph 83 % 0.00 in 0 W/m2
03:53 50.9 °F 46.2 °F 29.91 in WNW 4.0 mph 9.0 mph 84 % 0.00 in 0 W/m2
03:58 50.7 °F 46.1 °F 29.91 in WNW 4.0 mph 9.0 mph 84 % 0.00 in 0 W/m2
04:03 50.7 °F 46.1 °F 29.91 in West 3.0 mph 9.0 mph 84 % 0.00 in 0 W/m2
04:08 50.7 °F 46.4 °F 29.91 in West 4.0 mph 9.0 mph 85 % 0.00 in 0 W/m2
04:13 51.1 °F 46.4 °F 29.91 in WSW 3.0 mph 9.0 mph 84 % 0.00 in 0 W/m2
04:18 51.1 °F 46.1 °F 29.91 in SW 1.0 mph 5.0 mph 83 % 0.00 in 0 W/m2
04:23 50.9 °F 45.9 °F 29.91 in Calm   1.0 mph 83 % 0.00 in 0 W/m2
04:28 50.9 °F 46.2 °F 29.91 in SW 1.0 mph 8.0 mph 84 % 0.00 in 0 W/m2
04:33 51.3 °F 46.6 °F 29.91 in SW 2.0 mph 8.0 mph 84 % 0.00 in 0 W/m2
04:38 51.3 °F 46.3 °F 29.91 in SW 1.0 mph 6.0 mph 83 % 0.00 in 0 W/m2
04:43 51.3 °F 46.3 °F 29.90 in WNW 2.0 mph 7.0 mph 83 % 0.00 in 5 W/m2
04:48 51.4 °F 46.4 °F 29.90 in West 4.0 mph 10.0 mph 83 % 0.00 in 7 W/m2
04:53 51.6 °F 46.3 °F 29.90 in West 4.0 mph 10.0 mph 82 % 0.00 in 7 W/m2
04:58 51.4 °F 46.1 °F 29.91 in West 2.0 mph 9.0 mph 82 % 0.00 in 9 W/m2
05:03 51.3 °F 46.0 °F 29.90 in West 2.0 mph 6.0 mph 82 % 0.00 in 11 W/m2
05:08 51.3 °F 46.0 °F 29.91 in WNW 3.0 mph 8.0 mph 82 % 0.00 in 12 W/m2
05:13 51.3 °F 46.3 °F 29.91 in West 3.0 mph 8.0 mph 83 % 0.00 in 12 W/m2
05:18 51.3 °F 46.3 °F 29.91 in West 4.0 mph 11.0 mph 83 % 0.00 in 14 W/m2
05:23 51.3 °F 46.3 °F 29.91 in West 4.0 mph 11.0 mph 83 % 0.00 in 16 W/m2
05:28 51.1 °F 46.1 °F 29.91 in WSW 2.0 mph 6.0 mph 83 % 0.00 in 18 W/m2
05:33 50.9 °F 45.9 °F 29.91 in WSW 2.0 mph 6.0 mph 83 % 0.00 in 19 W/m2
05:38 50.7 °F 46.1 °F 29.91 in WSW 1.0 mph 6.0 mph 84 % 0.00 in 21 W/m2
05:44 50.5 °F 45.9 °F 29.91 in WSW 2.0 mph 8.0 mph 84 % 0.00 in 23 W/m2
05:49 50.5 °F 46.2 °F 29.91 in WSW 3.0 mph 8.0 mph 85 % 0.00 in 23 W/m2
05:54 50.7 °F 46.4 °F 29.91 in WSW 4.0 mph 12.0 mph 85 % 0.00 in 26 W/m2
05:59 51.1 °F 46.7 °F 29.91 in West 5.0 mph 14.0 mph 85 % 0.00 in 105 W/m2
06:04 51.4 °F 47.1 °F 29.91 in West 7.0 mph 14.0 mph 85 % 0.00 in 77 W/m2
06:09 52.0 °F 47.3 °F 29.91 in WNW 6.0 mph 12.0 mph 84 % 0.00 in 42 W/m2
06:14 52.3 °F 47.6 °F 29.91 in WNW 5.0 mph 12.0 mph 84 % 0.00 in 47 W/m2
06:19 52.5 °F 47.5 °F 29.91 in WNW 6.0 mph 12.0 mph 83 % 0.00 in 39 W/m2
06:24 52.7 °F 47.4 °F 29.91 in West 8.0 mph 14.0 mph 82 % 0.00 in 42 W/m2
06:29 52.9 °F 47.5 °F 29.91 in West 9.0 mph 15.0 mph 82 % 0.00 in 33 W/m2
06:34 53.1 °F 47.7 °F 29.92 in West 8.0 mph 15.0 mph 82 % 0.00 in 49 W/m2
06:39 53.2 °F 47.9 °F 29.92 in West 5.0 mph 10.0 mph 82 % 0.00 in 42 W/m2
06:44 53.4 °F 47.7 °F 29.92 in West 6.0 mph 14.0 mph 81 % 0.00 in 46 W/m2
06:49 53.8 °F 48.1 °F 29.92 in West 8.0 mph 14.0 mph 81 % 0.00 in 49 W/m2
06:54 54.0 °F 47.9 °F 29.92 in West 9.0 mph 16.0 mph 80 % 0.00 in 56 W/m2
06:59 54.3 °F 48.3 °F 29.92 in West 9.0 mph 18.0 mph 80 % 0.00 in 86 W/m2
07:04 54.7 °F 48.3 °F 29.93 in WSW 10.0 mph 18.0 mph 79 % 0.00 in 79 W/m2
07:09 54.9 °F 48.1 °F 29.92 in WSW 10.0 mph 16.0 mph 78 % 0.00 in 54 W/m2
07:14 55.0 °F 48.3 °F 29.93 in WSW 9.0 mph 14.0 mph 78 % 0.00 in 176 W/m2
07:19 55.2 °F 48.5 °F 29.93 in WSW 8.0 mph 12.0 mph 78 % 0.00 in 306 W/m2
07:24 55.6 °F 48.5 °F 29.93 in WSW 7.0 mph 12.0 mph 77 % 0.00 in 322 W/m2
07:29 55.9 °F 48.8 °F 29.93 in West 7.0 mph 13.0 mph 77 % 0.00 in 329 W/m2
07:34 56.3 °F 48.8 °F 29.93 in West 7.0 mph 14.0 mph 76 % 0.00 in 343 W/m2
07:39 56.7 °F 48.8 °F 29.93 in West 8.0 mph 14.0 mph 75 % 0.00 in 378 W/m2
07:44 57.0 °F 49.2 °F 29.93 in West 7.0 mph 13.0 mph 75 % 0.00 in 394 W/m2
07:49 57.0 °F 48.8 °F 29.93 in West 7.0 mph 15.0 mph 74 % 0.00 in 118 W/m2
07:55 56.8 °F 48.3 °F 29.93 in West 10.0 mph 19.0 mph 73 % 0.00 in 144 W/m2
08:00 56.7 °F 48.5 °F 29.93 in West 8.0 mph 19.0 mph 74 % 0.00 in 420 W/m2
08:05 57.0 °F 48.8 °F 29.93 in West 6.0 mph 10.0 mph 74 % 0.00 in 424 W/m2
08:10 57.4 °F 48.4 °F 29.93 in West 8.0 mph 15.0 mph 72 % 0.00 in 83 W/m2
08:15 57.4 °F 48.4 °F 29.94 in West 9.0 mph 15.0 mph 72 % 0.00 in 464 W/m2
08:20 57.6 °F 48.6 °F 29.94 in West 9.0 mph 16.0 mph 72 % 0.00 in 480 W/m2
08:25 57.7 °F 48.4 °F 29.93 in West 9.0 mph 16.0 mph 71 % 0.00 in 487 W/m2
08:30 58.3 °F 48.5 °F 29.93 in West 9.0 mph 15.0 mph 70 % 0.00 in 499 W/m2
08:35 58.6 °F 48.1 °F 29.93 in West 9.0 mph 15.0 mph 68 % 0.00 in 515 W/m2
08:40 58.6 °F 48.1 °F 29.93 in West 9.0 mph 15.0 mph 68 % 0.00 in 527 W/m2
08:45 59.0 °F 48.1 °F 29.93 in West 10.0 mph 15.0 mph 67 % 0.00 in 543 W/m2
08:50 59.0 °F 47.7 °F 29.93 in West 10.0 mph 16.0 mph 66 % 0.00 in 566 W/m2
08:56 59.4 °F 47.6 °F 29.93 in West 9.0 mph 16.0 mph 65 % 0.00 in 612 W/m2
09:01 59.9 °F 48.1 °F 29.93 in West 7.0 mph 13.0 mph 65 % 0.00 in 686 W/m2
09:06 60.6 °F 47.9 °F 29.93 in WNW 6.0 mph 13.0 mph 63 % 0.00 in 752 W/m2
09:21 60.6 °F 47.5 °F 29.93 in WNW 2.0 mph 7.0 mph 62 % 0.00 in 237 W/m2
09:26 60.3 °F 47.6 °F 29.93 in WNW 2.0 mph 7.0 mph 63 % 0.00 in 229 W/m2
09:31 60.4 °F 48.2 °F 29.93 in West 1.0 mph 6.0 mph 64 % 0.00 in 269 W/m2
09:36 60.6 °F 47.5 °F 29.93 in West 2.0 mph 11.0 mph 62 % 0.00 in 236 W/m2
09:41 60.8 °F 47.3 °F 29.92 in WNW 5.0 mph 11.0 mph 61 % 0.00 in 135 W/m2
09:46 60.4 °F 46.9 °F 29.92 in WNW 6.0 mph 11.0 mph 61 % 0.00 in 772 W/m2
09:51 60.4 °F 47.4 °F 29.92 in West 7.0 mph 11.0 mph 62 % 0.00 in 731 W/m2
09:56 61.0 °F 47.4 °F 29.92 in WNW 7.0 mph 12.0 mph 61 % 0.00 in 255 W/m2
10:01 61.3 °F 47.8 °F 29.92 in WNW 6.0 mph 12.0 mph 61 % 0.00 in 870 W/m2
10:06 61.5 °F 47.5 °F 29.92 in West 6.0 mph 12.0 mph 60 % 0.00 in 209 W/m2
10:11 61.7 °F 47.7 °F 29.92 in West 7.0 mph 12.0 mph 60 % 0.00 in 780 W/m2
10:16 62.2 °F 48.2 °F 29.92 in West 8.0 mph 16.0 mph 60 % 0.00 in 765 W/m2
10:21 63.0 °F 47.5 °F 29.92 in West 9.0 mph 16.0 mph 57 % 0.00 in 740 W/m2
10:26 63.3 °F 48.3 °F 29.92 in West 9.0 mph 16.0 mph 58 % 0.00 in 909 W/m2
10:31 63.7 °F 48.2 °F 29.92 in West 8.0 mph 15.0 mph 57 % 0.00 in 754 W/m2
10:36 63.9 °F 47.9 °F 29.92 in West 8.0 mph 15.0 mph 56 % 0.00 in 308 W/m2
10:41 63.5 °F 47.0 °F 29.92 in West 7.0 mph 14.0 mph 55 % 0.00 in 274 W/m2
10:46 63.3 °F 46.4 °F 29.92 in West 7.0 mph 13.0 mph 54 % 0.00 in 675 W/m2
10:52 63.1 °F 46.2 °F 29.91 in WSW 8.0 mph 13.0 mph 54 % 0.00 in 911 W/m2
10:56 63.3 °F 46.4 °F 29.92 in WSW 8.0 mph 14.0 mph 54 % 0.00 in 858 W/m2
10:57 63.3 °F 46.4 °F 29.91 in WSW 8.0 mph 14.0 mph 54 % 0.00 in 858 W/m2
11:02 64.0 °F 47.5 °F 29.91 in WSW 7.0 mph 13.0 mph 55 % 0.00 in 895 W/m2
11:07 64.8 °F 46.7 °F 29.91 in WSW 8.0 mph 16.0 mph 52 % 0.00 in 703 W/m2
11:12 64.9 °F 45.3 °F 29.91 in WSW 9.0 mph 16.0 mph 49 % 0.00 in 976 W/m2
11:17 64.8 °F 45.7 °F 29.91 in WSW 9.0 mph 16.0 mph 50 % 0.00 in 977 W/m2
11:22 64.8 °F 45.1 °F 29.91 in WSW 10.0 mph 21.0 mph 49 % 0.00 in 563 W/m2
11:27 64.9 °F 45.8 °F 29.91 in WSW 11.0 mph 21.0 mph 50 % 0.00 in 821 W/m2
11:32 65.1 °F 45.5 °F 29.91 in WSW 11.0 mph 22.0 mph 49 % 0.00 in 867 W/m2
11:37 64.9 °F 45.8 °F 29.91 in SW 11.0 mph 22.0 mph 50 % 0.00 in 381 W/m2
11:42 65.3 °F 45.1 °F 29.92 in WSW 11.0 mph 20.0 mph 48 % 0.00 in 1216 W/m2
11:47 64.9 °F 44.2 °F 29.92 in WSW 12.0 mph 20.0 mph 47 % 0.00 in 332 W/m2
11:52 63.9 °F 46.9 °F 29.92 in WSW 13.0 mph 26.0 mph 54 % 0.00 in 274 W/m2
11:57 61.9 °F 46.0 °F 29.92 in West 17.0 mph 26.0 mph 56 % 0.00 in 232 W/m2
12:02 60.6 °F 46.2 °F 29.93 in West 17.0 mph 26.0 mph 59 % 0.00 in 345 W/m2
12:07 60.1 °F 47.0 °F 29.93 in West 14.0 mph 25.0 mph 62 % 0.00 in 429 W/m2
12:12 60.1 °F 46.6 °F 29.93 in West 13.0 mph 23.0 mph 61 % 0.00 in 359 W/m2
12:17 60.1 °F 45.2 °F 29.93 in West 14.0 mph 23.0 mph 58 % 0.00 in 323 W/m2
12:23 60.3 °F 46.3 °F 29.93 in West 13.0 mph 21.0 mph 60 % 0.00 in 294 W/m2
12:28 60.3 °F 46.3 °F 29.93 in West 11.0 mph 22.0 mph 60 % 0.00 in 269 W/m2
12:33 60.4 °F 46.0 °F 29.92 in WSW 9.0 mph 22.0 mph 59 % 0.00 in 304 W/m2
12:38 60.3 °F 45.0 °F 29.92 in WSW 8.0 mph 16.0 mph 57 % 0.00 in 322 W/m2
12:43 60.4 °F 44.2 °F 29.92 in SW 7.0 mph 16.0 mph 55 % 0.00 in 397 W/m2
12:48 61.0 °F 45.2 °F 29.92 in SW 5.0 mph 15.0 mph 56 % 0.00 in 976 W/m2
12:53 62.1 °F 45.7 °F 29.92 in WSW 6.0 mph 13.0 mph 55 % 0.00 in 930 W/m2
12:59 63.7 °F 44.7 °F 29.92 in WSW 8.0 mph 16.0 mph 50 % 0.00 in 947 W/m2
13:03 64.2 °F 44.1 °F 29.91 in WSW 11.0 mph 19.0 mph 48 % 0.00 in 881 W/m2
13:09 64.9 °F 44.2 °F 29.91 in WSW 11.0 mph 19.0 mph 47 % 0.00 in 932 W/m2
13:14 65.3 °F 44.0 °F 29.91 in WSW 11.0 mph 20.0 mph 46 % 0.00 in 944 W/m2
13:19 65.7 °F 43.7 °F 29.91 in WSW 12.0 mph 23.0 mph 45 % 0.00 in 977 W/m2
13:24 65.3 °F 43.4 °F 29.91 in WSW 13.0 mph 23.0 mph 45 % 0.00 in 162 W/m2
13:29 64.9 °F 44.2 °F 29.91 in WSW 12.0 mph 23.0 mph 47 % 0.00 in 935 W/m2
13:34 65.3 °F 44.5 °F 29.91 in WSW 11.0 mph 19.0 mph 47 % 0.00 in 988 W/m2
13:39 65.8 °F 44.5 °F 29.91 in WSW 12.0 mph 19.0 mph 46 % 0.00 in 1041 W/m2
13:44 66.0 °F 44.1 °F 29.90 in SW 11.0 mph 19.0 mph 45 % 0.00 in 367 W/m2
13:49 65.7 °F 44.3 °F 29.90 in SW 10.0 mph 18.0 mph 46 % 0.00 in 341 W/m2
13:54 64.9 °F 43.7 °F 29.90 in SW 10.0 mph 18.0 mph 46 % 0.00 in 313 W/m2
13:59 64.2 °F 43.6 °F 29.90 in SW 9.0 mph 15.0 mph 47 % 0.00 in 287 W/m2
14:05 64.2 °F 44.1 °F 29.90 in SW 8.0 mph 15.0 mph 48 % 0.00 in 292 W/m2
14:10 64.0 °F 43.9 °F 29.90 in SW 9.0 mph 19.0 mph 48 % 0.00 in 271 W/m2
14:15 63.3 °F 43.8 °F 29.90 in SSW 11.0 mph 20.0 mph 49 % 0.00 in 227 W/m2
14:20 63.1 °F 43.7 °F 29.90 in SW 11.0 mph 20.0 mph 49 % 0.00 in 188 W/m2
14:21 63.0 °F 43.5 °F 29.90 in SW 11.0 mph 20.0 mph 49 % 0.00 in 193 W/m2
14:26 63.0 °F 44.5 °F 29.90 in SW 10.0 mph 20.0 mph 51 % 0.00 in 355 W/m2
14:27 63.0 °F 45.1 °F 29.90 in SW 10.0 mph 18.0 mph 52 % 0.00 in 381 W/m2
14:32 63.0 °F 45.6 °F 29.90 in SW 9.0 mph 16.0 mph 53 % 0.00 in 364 W/m2
14:37 63.1 °F 46.7 °F 29.90 in SW 10.0 mph 16.0 mph 55 % 0.00 in 371 W/m2
14:42 63.0 °F 47.9 °F 29.91 in SW 11.0 mph 19.0 mph 58 % 0.00 in 241 W/m2
14:47 62.6 °F 48.5 °F 29.90 in SW 11.0 mph 19.0 mph 60 % 0.00 in 1007 W/m2
14:52 62.8 °F 49.1 °F 29.90 in SW 11.0 mph 18.0 mph 61 % 0.00 in 995 W/m2
14:57 63.1 °F 49.5 °F 29.90 in SW 11.0 mph 20.0 mph 61 % 0.00 in 501 W/m2
15:02 63.0 °F 49.3 °F 29.90 in SSW 13.0 mph 21.0 mph 61 % 0.00 in 367 W/m2
15:07 62.8 °F 48.7 °F 29.90 in SSW 13.0 mph 21.0 mph 60 % 0.00 in 313 W/m2
15:12 62.2 °F 48.6 °F 29.90 in SSW 12.0 mph 20.0 mph 61 % 0.00 in 243 W/m2
15:17 61.9 °F 48.7 °F 29.89 in SSW 11.0 mph 19.0 mph 62 % 0.00 in 204 W/m2
15:22 61.7 °F 49.4 °F 29.90 in SSW 10.0 mph 19.0 mph 64 % 0.00 in 199 W/m2
15:27 61.3 °F 49.1 °F 29.89 in SSW 8.0 mph 19.0 mph 64 % 0.00 in 244 W/m2
15:32 61.3 °F 49.5 °F 29.90 in SSW 8.0 mph 18.0 mph 65 % 0.00 in 250 W/m2
15:37 61.0 °F 50.7 °F 29.90 in SSW 9.0 mph 18.0 mph 69 % 0.00 in 211 W/m2
15:42 60.3 °F 51.2 °F 29.90 in SW 9.0 mph 19.0 mph 72 % 0.00 in 167 W/m2
15:47 59.4 °F 51.4 °F 29.91 in SW 11.0 mph 19.0 mph 75 % 0.00 in 121 W/m2
15:52 58.5 °F 52.0 °F 29.91 in SW 9.0 mph 19.0 mph 79 % 0.01 in 141 W/m2
15:57 57.6 °F 51.4 °F 29.91 in SW 9.0 mph 16.0 mph 80 % 0.01 in 148 W/m2
16:02 56.8 °F 51.1 °F 29.91 in SW 8.0 mph 16.0 mph 81 % 0.01 in 155 W/m2
16:07 56.5 °F 51.1 °F 29.91 in SW 7.0 mph 15.0 mph 82 % 0.01 in 125 W/m2
16:12 56.1 °F 51.0 °F 29.91 in SW 6.0 mph 11.0 mph 83 % 0.01 in 113 W/m2
16:17 55.8 °F 51.0 °F 29.91 in SW 6.0 mph 9.0 mph 84 % 0.01 in 128 W/m2
16:23 55.8 °F 51.6 °F 29.91 in SW 7.0 mph 15.0 mph 86 % 0.02 in 220 W/m2
16:28 55.9 °F 52.1 °F 29.91 in SW 6.0 mph 15.0 mph 87 % 0.02 in 220 W/m2
16:33 55.9 °F 52.1 °F 29.90 in SSW 6.0 mph 11.0 mph 87 % 0.02 in 241 W/m2
16:38 56.1 °F 52.3 °F 29.90 in SSW 6.0 mph 11.0 mph 87 % 0.02 in 353 W/m2
16:43 56.7 °F 52.8 °F 29.89 in SSW 5.0 mph 11.0 mph 87 % 0.02 in 225 W/m2
16:48 57.0 °F 53.2 °F 29.89 in SW 5.0 mph 8.0 mph 87 % 0.02 in 264 W/m2
16:53 57.2 °F 53.0 °F 29.89 in SW 4.0 mph 8.0 mph 86 % 0.01 in 221 W/m2
16:58 57.6 °F 53.1 °F 29.89 in SW 5.0 mph 10.0 mph 85 % 0.01 in 287 W/m2
17:03 57.9 °F 53.4 °F 29.89 in SW 6.0 mph 10.0 mph 85 % 0.01 in 329 W/m2
17:08 58.5 °F 53.6 °F 29.89 in SW 6.0 mph 12.0 mph 84 % 0.01 in 229 W/m2
17:13 58.6 °F 53.5 °F 29.89 in SW 6.0 mph 12.0 mph 83 % 0.01 in 244 W/m2
17:18 58.8 °F 53.3 °F 29.88 in SW 6.0 mph 12.0 mph 82 % 0.01 in 260 W/m2
17:23 58.8 °F 53.0 °F 29.88 in SW 6.0 mph 12.0 mph 81 % 0.00 in 671 W/m2
17:28 59.4 °F 53.5 °F 29.88 in SW 5.0 mph 9.0 mph 81 % 0.00 in 534 W/m2
17:33 60.1 °F 53.5 °F 29.88 in SSW 6.0 mph 11.0 mph 79 % 0.00 in 499 W/m2
17:38 60.3 °F 52.7 °F 29.88 in SSW 7.0 mph 13.0 mph 76 % 0.00 in 483 W/m2
17:43 60.4 °F 52.8 °F 29.88 in SSW 8.0 mph 13.0 mph 76 % 0.00 in 471 W/m2
17:48 60.6 °F 53.0 °F 29.88 in SSW 8.0 mph 15.0 mph 76 % 0.00 in 466 W/m2
17:53 61.0 °F 53.4 °F 29.87 in SSW 8.0 mph 15.0 mph 76 % 0.00 in 452 W/m2
17:58 61.2 °F 52.1 °F 29.87 in SW 7.0 mph 12.0 mph 72 % 0.00 in 434 W/m2
18:03 61.3 °F 51.5 °F 29.87 in SW 7.0 mph 12.0 mph 70 % 0.00 in 415 W/m2
18:08 61.5 °F 52.0 °F 29.87 in SW 7.0 mph 12.0 mph 71 % 0.00 in 399 W/m2
18:13 61.5 °F 51.3 °F 29.87 in SSW 8.0 mph 13.0 mph 69 % 0.00 in 394 W/m2
18:18 61.7 °F 51.0 °F 29.87 in SSW 8.0 mph 13.0 mph 68 % 0.00 in 104 W/m2
18:23 61.3 °F 50.7 °F 29.87 in SW 7.0 mph 14.0 mph 68 % 0.00 in 134 W/m2
18:28 61.2 °F 51.3 °F 29.87 in SW 8.0 mph 14.0 mph 70 % 0.00 in 127 W/m2
18:33 60.6 °F 51.2 °F 29.86 in SSW 7.0 mph 12.0 mph 71 % 0.00 in 165 W/m2
18:38 60.6 °F 51.5 °F 29.86 in SSW 7.0 mph 12.0 mph 72 % 0.00 in 306 W/m2
18:43 61.0 °F 52.3 °F 29.86 in SSW 7.0 mph 11.0 mph 73 % 0.00 in 445 W/m2
18:48 61.3 °F 51.1 °F 29.86 in SW 7.0 mph 15.0 mph 69 % 0.00 in 380 W/m2
18:53 61.7 °F 51.0 °F 29.86 in SW 9.0 mph 15.0 mph 68 % 0.00 in 294 W/m2
18:58 61.7 °F 50.6 °F 29.86 in SW 9.0 mph 14.0 mph 67 % 0.00 in 272 W/m2
19:03 61.9 °F 51.2 °F 29.86 in SW 8.0 mph 14.0 mph 68 % 0.00 in 193 W/m2
19:08 61.5 °F 51.3 °F 29.86 in SW 8.0 mph 14.0 mph 69 % 0.00 in 220 W/m2
19:13 61.2 °F 50.9 °F 29.86 in SSW 9.0 mph 14.0 mph 69 % 0.00 in 174 W/m2
19:18 61.0 °F 51.1 °F 29.86 in SW 8.0 mph 14.0 mph 70 % 0.00 in 174 W/m2
19:23 60.8 °F 51.0 °F 29.86 in SW 7.0 mph 11.0 mph 70 % 0.00 in 47 W/m2
19:28 60.4 °F 50.6 °F 29.86 in SW 7.0 mph 11.0 mph 70 % 0.00 in 46 W/m2
19:33 60.3 °F 50.8 °F 29.86 in SW 6.0 mph 11.0 mph 71 % 0.00 in 39 W/m2
19:38 60.1 °F 50.6 °F 29.86 in SW 6.0 mph 13.0 mph 71 % 0.00 in 37 W/m2
19:44 59.7 °F 50.7 °F 29.86 in SW 6.0 mph 13.0 mph 72 % 0.00 in 58 W/m2
19:49 59.7 °F 50.7 °F 29.86 in SSW 6.0 mph 12.0 mph 72 % 0.00 in 127 W/m2
19:54 59.7 °F 51.0 °F 29.86 in SSW 6.0 mph 12.0 mph 73 % 0.00 in 148 W/m2
19:59 59.7 °F 51.0 °F 29.86 in SW 5.0 mph 8.0 mph 73 % 0.00 in 65 W/m2
20:04 59.7 °F 51.0 °F 29.86 in SW 5.0 mph 8.0 mph 73 % 0.00 in 113 W/m2
20:09 59.7 °F 51.0 °F 29.86 in SW 5.0 mph 8.0 mph 73 % 0.00 in 88 W/m2
20:14 59.9 °F 51.2 °F 29.86 in SW 5.0 mph 8.0 mph 73 % 0.00 in 62 W/m2
20:19 59.7 °F 49.9 °F 29.86 in SW 6.0 mph 10.0 mph 70 % 0.00 in 37 W/m2
20:24 59.7 °F 48.3 °F 29.86 in SW 7.0 mph 11.0 mph 66 % 0.00 in 32 W/m2
20:29 59.5 °F 45.2 °F 29.86 in WSW 6.0 mph 12.0 mph 59 % 0.00 in 28 W/m2
20:34 59.4 °F 44.1 °F 29.86 in WSW 7.0 mph 12.0 mph 57 % 0.00 in 25 W/m2
20:39 59.2 °F 44.4 °F 29.86 in WSW 6.0 mph 11.0 mph 58 % 0.00 in 21 W/m2
20:44 58.8 °F 44.1 °F 29.86 in WSW 6.0 mph 10.0 mph 58 % 0.00 in 18 W/m2
20:49 58.5 °F 44.2 °F 29.86 in WSW 5.0 mph 9.0 mph 59 % 0.00 in 16 W/m2
20:54 58.1 °F 44.3 °F 29.86 in WSW 4.0 mph 9.0 mph 60 % 0.00 in 16 W/m2
20:59 57.7 °F 43.9 °F 29.87 in WSW 3.0 mph 7.0 mph 60 % 0.00 in 14 W/m2
21:04 57.4 °F 44.0 °F 29.87 in WSW 4.0 mph 7.0 mph 61 % 0.00 in 12 W/m2
21:09 57.0 °F 44.1 °F 29.87 in WSW 3.0 mph 6.0 mph 62 % 0.00 in 9 W/m2
21:14 56.8 °F 44.4 °F 29.87 in WSW 3.0 mph 6.0 mph 63 % 0.00 in 7 W/m2
21:19 56.5 °F 44.0 °F 29.87 in WSW 3.0 mph 7.0 mph 63 % 0.00 in 5 W/m2
21:24 56.1 °F 44.5 °F 29.87 in WSW 2.0 mph 7.0 mph 65 % 0.00 in 5 W/m2
21:29 55.9 °F 44.3 °F 29.87 in WSW 1.0 mph 6.0 mph 65 % 0.00 in 0 W/m2
21:34 55.6 °F 44.4 °F 29.87 in Calm   4.0 mph 66 % 0.00 in 0 W/m2
21:39 55.2 °F 44.4 °F 29.87 in Calm   1.0 mph 67 % 0.00 in 0 W/m2
21:44 54.9 °F 44.5 °F 29.87 in WSW 1.0 mph 4.0 mph 68 % 0.00 in 0 W/m2
21:49 54.3 °F 44.0 °F 29.87 in West 2.0 mph 5.0 mph 68 % 0.00 in 0 W/m2
21:54 54.0 °F 44.0 °F 29.87 in West 2.0 mph 5.0 mph 69 % 0.00 in 0 W/m2
21:59 53.8 °F 44.2 °F 29.87 in West 1.0 mph 5.0 mph 70 % 0.00 in 0 W/m2
22:00 53.8 °F 44.2 °F 29.87 in West 1.0 mph 5.0 mph 70 % 0.00 in 0 W/m2
22:05 53.4 °F 44.2 °F 29.87 in West 1.0 mph 5.0 mph 71 % 0.00 in 0 W/m2
22:10 53.1 °F 43.9 °F 29.87 in Calm   1.0 mph 71 % 0.00 in 0 W/m2
22:15 52.7 °F 43.6 °F 29.87 in Calm   3.0 mph 71 % 0.00 in 0 W/m2
22:20 52.3 °F 43.6 °F 29.87 in West 1.0 mph 5.0 mph 72 % 0.00 in 0 W/m2
22:25 52.2 °F 43.8 °F 29.87 in West 1.0 mph 5.0 mph 73 % 0.00 in 0 W/m2
22:30 51.8 °F 43.4 °F 29.87 in West 1.0 mph 3.0 mph 73 % 0.00 in 0 W/m2
22:35 51.4 °F 43.4 °F 29.87 in West 1.0 mph 3.0 mph 74 % 0.00 in 0 W/m2
22:40 51.3 °F 43.3 °F 29.87 in West 1.0 mph 3.0 mph 74 % 0.00 in 0 W/m2
22:45 51.1 °F 43.1 °F 29.87 in West 1.0 mph 3.0 mph 74 % 0.00 in 0 W/m2
22:50 50.9 °F 43.3 °F 29.87 in West 1.0 mph 2.0 mph 75 % 0.00 in 0 W/m2
22:55 50.7 °F 43.1 °F 29.87 in West 1.0 mph 2.0 mph 75 % 0.00 in 0 W/m2
23:00 50.5 °F 42.9 °F 29.87 in Calm   2.0 mph 75 % 0.00 in 0 W/m2
23:05 50.4 °F 43.1 °F 29.86 in Calm   2.0 mph 76 % 0.00 in 0 W/m2
23:10 50.2 °F 42.9 °F 29.86 in Calm     76 % 0.00 in 0 W/m2
23:15 50.0 °F 43.1 °F 29.86 in Calm     77 % 0.00 in 0 W/m2
23:20 49.8 °F 43.2 °F 29.87 in Calm     78 % 0.00 in 0 W/m2
23:25 49.5 °F 43.2 °F 29.87 in Calm     79 % 0.00 in 0 W/m2
23:30 49.3 °F 43.4 °F 29.86 in Calm     80 % 0.00 in 0 W/m2
23:31 49.3 °F 43.4 °F 29.86 in Calm     80 % 0.00 in 0 W/m2
23:36 49.3 °F 43.4 °F 29.86 in Calm   2.0 mph 80 % 0.00 in 0 W/m2
23:41 49.5 °F 43.2 °F 29.86 in Calm   2.0 mph 79 % 0.00 in 0 W/m2
23:46 49.6 °F 43.7 °F 29.86 in Calm   2.0 mph 80 % 0.00 in 0 W/m2
23:51 49.8 °F 43.9 °F 29.86 in Calm     80 % 0.00 in 0 W/m2
23:56 49.8 °F 43.6 °F 29.86 in Calm   2.0 mph 79 % 0.00 in 0 W/m2
Delerius-Weather
Compliments of Weather Underground - 2.25 mb

Data updates at regular intervals.